sensor_id;sensor_type;location;lat;lon;timestamp;pressure;altitude;pressure_sealevel;temperature;humidity
51289;BME280;37372;52.294;5.152;2023-01-31T00:01:15;102496.16;;;1.94;100.00
51289;BME280;37372;52.294;5.152;2023-01-31T00:03:40;102496.16;;;1.94;100.00
51289;BME280;37372;52.294;5.152;2023-01-31T00:06:11;102485.88;;;1.94;100.00
51289;BME280;37372;52.294;5.152;2023-01-31T00:08:37;102481.69;;;1.97;100.00
51289;BME280;37372;52.294;5.152;2023-01-31T00:11:02;102486.69;;;1.95;100.00
51289;BME280;37372;52.294;5.152;2023-01-31T00:13:28;102478.72;;;1.93;100.00
51289;BME280;37372;52.294;5.152;2023-01-31T00:15:56;102466.81;;;1.93;100.00
51289;BME280;37372;52.294;5.152;2023-01-31T00:18:22;102464.38;;;1.91;100.00
51289;BME280;37372;52.294;5.152;2023-01-31T00:20:47;102455.75;;;1.93;100.00
51289;BME280;37372;52.294;5.152;2023-01-31T00:23:12;102458.03;;;1.91;100.00
51289;BME280;37372;52.294;5.152;2023-01-31T00:25:38;102450.84;;;1.90;100.00
51289;BME280;37372;52.294;5.152;2023-01-31T00:28:03;102439.78;;;1.90;100.00
51289;BME280;37372;52.294;5.152;2023-01-31T00:30:29;102434.25;;;1.90;100.00
51289;BME280;37372;52.294;5.152;2023-01-31T00:32:54;102417.34;;;1.91;100.00
51289;BME280;37372;52.294;5.152;2023-01-31T00:35:20;102424.84;;;1.91;100.00
51289;BME280;37372;52.294;5.152;2023-01-31T00:37:45;102413.06;;;1.85;100.00
51289;BME280;37372;52.294;5.152;2023-01-31T00:40:11;102413.41;;;1.84;100.00
51289;BME280;37372;52.294;5.152;2023-01-31T00:42:36;102416.66;;;1.86;100.00
51289;BME280;37372;52.294;5.152;2023-01-31T00:45:02;102412.72;;;1.78;100.00
51289;BME280;37372;52.294;5.152;2023-01-31T00:47:27;102395.28;;;1.78;100.00
51289;BME280;37372;52.294;5.152;2023-01-31T00:49:53;102397.22;;;1.77;100.00
51289;BME280;37372;52.294;5.152;2023-01-31T00:52:18;102405.66;;;1.72;100.00
51289;BME280;37372;52.294;5.152;2023-01-31T00:54:43;102399.31;;;1.71;100.00
51289;BME280;37372;52.294;5.152;2023-01-31T00:57:09;102398.00;;;1.69;100.00
51289;BME280;37372;52.294;5.152;2023-01-31T00:59:34;102390.53;;;1.69;100.00
51289;BME280;37372;52.294;5.152;2023-01-31T01:01:59;102387.25;;;1.67;100.00
51289;BME280;37372;52.294;5.152;2023-01-31T01:04:25;102386.06;;;1.60;100.00
51289;BME280;37372;52.294;5.152;2023-01-31T01:06:50;102389.16;;;1.58;100.00
51289;BME280;37372;52.294;5.152;2023-01-31T01:09:16;102380.38;;;1.56;100.00
51289;BME280;37372;52.294;5.152;2023-01-31T01:11:41;102384.25;;;1.55;100.00
51289;BME280;37372;52.294;5.152;2023-01-31T01:14:07;102377.38;;;1.52;100.00
51289;BME280;37372;52.294;5.152;2023-01-31T01:16:35;102380.38;;;1.56;100.00
51289;BME280;37372;52.294;5.152;2023-01-31T01:19:02;102383.63;;;1.58;100.00
51289;BME280;37372;52.294;5.152;2023-01-31T01:21:29;102373.56;;;1.62;100.00
51289;BME280;37372;52.294;5.152;2023-01-31T01:23:57;102379.09;;;1.62;100.00
51289;BME280;37372;52.294;5.152;2023-01-31T01:26:30;102373.56;;;1.62;100.00
51289;BME280;37372;52.294;5.152;2023-01-31T01:28:57;102373.09;;;1.69;100.00
51289;BME280;37372;52.294;5.152;2023-01-31T01:31:23;102383.38;;;1.68;100.00
51289;BME280;37372;52.294;5.152;2023-01-31T01:33:57;102386.59;;;1.70;100.00
51289;BME280;37372;52.294;5.152;2023-01-31T01:36:23;102389.56;;;1.74;100.00
51289;BME280;37372;52.294;5.152;2023-01-31T01:38:50;102396.44;;;1.77;100.00
51289;BME280;37372;52.294;5.152;2023-01-31T01:41:16;102400.38;;;1.84;100.00
51289;BME280;37372;52.294;5.152;2023-01-31T01:43:51;102390.63;;;1.87;100.00
51289;BME280;37372;52.294;5.152;2023-01-31T01:46:39;102395.38;;;1.95;100.00
51289;BME280;37372;52.294;5.152;2023-01-31T01:49:24;102401.78;;;2.04;100.00
51289;BME280;37372;52.294;5.152;2023-01-31T01:51:54;102403.44;;;2.14;100.00
51289;BME280;37372;52.294;5.152;2023-01-31T01:54:25;102403.63;;;2.17;100.00
51289;BME280;37372;52.294;5.152;2023-01-31T01:56:55;102400.84;;;2.17;100.00
51289;BME280;37372;52.294;5.152;2023-01-31T01:59:31;102396.94;;;2.18;100.00
51289;BME280;37372;52.294;5.152;2023-01-31T02:01:57;102386.03;;;2.22;100.00
51289;BME280;37372;52.294;5.152;2023-01-31T02:04:30;102382.97;;;2.32;100.00
51289;BME280;37372;52.294;5.152;2023-01-31T02:07:01;102395.72;;;2.42;100.00
51289;BME280;37372;52.294;5.152;2023-01-31T02:10:04;102398.16;;;2.44;100.00
51289;BME280;37372;52.294;5.152;2023-01-31T02:12:31;102386.41;;;2.47;100.00
51289;BME280;37372;52.294;5.152;2023-01-31T02:14:58;102390.03;;;2.56;100.00
51289;BME280;37372;52.294;5.152;2023-01-31T02:17:24;102388.91;;;2.66;100.00
51289;BME280;37372;52.294;5.152;2023-01-31T02:20:15;102391.53;;;2.71;100.00
51289;BME280;37372;52.294;5.152;2023-01-31T02:35:11;102374.28;;;2.82;100.00
51289;BME280;37372;52.294;5.152;2023-01-31T02:37:34;102362.53;;;2.94;100.00
51289;BME280;37372;52.294;5.152;2023-01-31T02:51:19;102352.91;;;3.00;100.00
51289;BME280;37372;52.294;5.152;2023-01-31T02:53:50;102355.84;;;2.95;100.00
51289;BME280;37372;52.294;5.152;2023-01-31T02:56:25;102360.72;;;3.07;100.00
51289;BME280;37372;52.294;5.152;2023-01-31T02:59:00;102354.38;;;3.07;100.00
51289;BME280;37372;52.294;5.152;2023-01-31T03:01:33;102357.63;;;3.09;100.00
51289;BME280;37372;52.294;5.152;2023-01-31T03:04:05;102355.66;;;3.18;100.00
51289;BME280;37372;52.294;5.152;2023-01-31T03:09:16;102349.31;;;3.26;100.00
51289;BME280;37372;52.294;5.152;2023-01-31T03:11:56;102345.38;;;3.27;100.00
51289;BME280;37372;52.294;5.152;2023-01-31T03:14:34;102340.81;;;3.31;100.00
51289;BME280;37372;52.294;5.152;2023-01-31T03:20:18;102336.41;;;3.30;100.00
51289;BME280;37372;52.294;5.152;2023-01-31T03:22:48;102341.31;;;3.24;100.00
51289;BME280;37372;52.294;5.152;2023-01-31T03:25:17;102335.75;;;3.24;100.00
51289;BME280;37372;52.294;5.152;2023-01-31T03:27:47;102331.84;;;3.17;100.00
51289;BME280;37372;52.294;5.152;2023-01-31T03:30:20;102321.91;;;3.16;100.00
51289;BME280;37372;52.294;5.152;2023-01-31T03:33:18;102317.00;;;3.21;100.00
51289;BME280;37372;52.294;5.152;2023-01-31T03:36:01;102309.66;;;3.17;100.00
51289;BME280;37372;52.294;5.152;2023-01-31T03:38:34;102308.06;;;3.16;100.00
51289;BME280;37372;52.294;5.152;2023-01-31T03:41:12;102311.16;;;3.14;100.00
51289;BME280;37372;52.294;5.152;2023-01-31T03:44:05;102302.50;;;3.16;100.00
51289;BME280;37372;52.294;5.152;2023-01-31T03:46:39;102306.22;;;3.20;100.00
51289;BME280;37372;52.294;5.152;2023-01-31T03:49:09;102304.13;;;3.17;100.00
51289;BME280;37372;52.294;5.152;2023-01-31T03:51:41;102311.94;;;3.15;100.00
51289;BME280;37372;52.294;5.152;2023-01-31T03:54:20;102291.25;;;3.12;100.00
51289;BME280;37372;52.294;5.152;2023-01-31T03:57:26;102290.44;;;3.12;100.00
51289;BME280;37372;52.294;5.152;2023-01-31T03:59:56;102290.44;;;3.12;100.00
51289;BME280;37372;52.294;5.152;2023-01-31T04:02:27;102274.25;;;3.22;100.00
51289;BME280;37372;52.294;5.152;2023-01-31T04:04:57;102286.16;;;3.23;100.00
51289;BME280;37372;52.294;5.152;2023-01-31T04:07:24;102278.31;;;3.25;100.00
51289;BME280;37372;52.294;5.152;2023-01-31T04:09:50;102272.13;;;3.28;100.00
51289;BME280;37372;52.294;5.152;2023-01-31T04:12:15;102277.31;;;3.38;100.00
51289;BME280;37372;52.294;5.152;2023-01-31T04:14:41;102273.41;;;3.39;100.00
51289;BME280;37372;52.294;5.152;2023-01-31T04:17:07;102266.50;;;3.45;100.00
51289;BME280;37372;52.294;5.152;2023-01-31T04:19:32;102259.34;;;3.44;100.00
51289;BME280;37372;52.294;5.152;2023-01-31T04:21:58;102268.81;;;3.43;100.00
51289;BME280;37372;52.294;5.152;2023-01-31T04:24:23;102270.09;;;3.46;100.00
51289;BME280;37372;52.294;5.152;2023-01-31T04:26:49;102263.56;;;3.51;100.00
51289;BME280;37372;52.294;5.152;2023-01-31T04:29:14;102272.34;;;3.61;100.00
51289;BME280;37372;52.294;5.152;2023-01-31T04:31:40;102265.50;;;3.59;100.00
51289;BME280;37372;52.294;5.152;2023-01-31T04:34:06;102270.69;;;3.69;100.00
51289;BME280;37372;52.294;5.152;2023-01-31T04:36:31;102264.66;;;3.67;100.00
51289;BME280;37372;52.294;5.152;2023-01-31T04:38:57;102255.94;;;3.77;100.00
51289;BME280;37372;52.294;5.152;2023-01-31T04:41:22;102266.06;;;3.73;100.00
51289;BME280;37372;52.294;5.152;2023-01-31T04:43:47;102245.53;;;3.74;100.00
51289;BME280;37372;52.294;5.152;2023-01-31T04:46:13;102246.94;;;3.80;100.00
51289;BME280;37372;52.294;5.152;2023-01-31T04:48:38;102252.31;;;3.85;100.00
51289;BME280;37372;52.294;5.152;2023-01-31T04:51:05;102251.19;;;3.78;100.00
51289;BME280;37372;52.294;5.152;2023-01-31T04:53:31;102257.19;;;3.88;100.00
51289;BME280;37372;52.294;5.152;2023-01-31T04:55:57;102249.81;;;3.92;100.00
51289;BME280;37372;52.294;5.152;2023-01-31T04:58:22;102240.53;;;3.88;100.00
51289;BME280;37372;52.294;5.152;2023-01-31T05:00:48;102244.28;;;3.92;100.00
51289;BME280;37372;52.294;5.152;2023-01-31T05:03:13;102254.63;;;4.04;100.00
51289;BME280;37372;52.294;5.152;2023-01-31T05:05:39;102250.94;;;3.91;100.00
51289;BME280;37372;52.294;5.152;2023-01-31T05:08:04;102242.00;;;3.86;100.00
51289;BME280;37372;52.294;5.152;2023-01-31T05:10:30;102247.72;;;3.89;100.00
51289;BME280;37372;52.294;5.152;2023-01-31T05:12:55;102243.09;;;3.94;100.00
51289;BME280;37372;52.294;5.152;2023-01-31T05:15:21;102239.22;;;3.86;100.00
51289;BME280;37372;52.294;5.152;2023-01-31T05:17:54;102239.66;;;3.97;100.00
51289;BME280;37372;52.294;5.152;2023-01-31T05:20:27;102236.88;;;3.97;100.00
51289;BME280;37372;52.294;5.152;2023-01-31T05:22:53;102224.84;;;3.92;100.00
51289;BME280;37372;52.294;5.152;2023-01-31T05:25:18;102231.31;;;3.97;100.00
51289;BME280;37372;52.294;5.152;2023-01-31T05:27:44;102235.38;;;3.99;100.00
51289;BME280;37372;52.294;5.152;2023-01-31T05:30:09;102223.19;;;3.91;100.00
51289;BME280;37372;52.294;5.152;2023-01-31T05:32:35;102224.97;;;3.96;100.00
51289;BME280;37372;52.294;5.152;2023-01-31T05:35:01;102229.72;;;3.96;100.00
51289;BME280;37372;52.294;5.152;2023-01-31T05:37:26;102229.03;;;3.99;100.00
51289;BME280;37372;52.294;5.152;2023-01-31T05:39:52;102227.22;;;4.03;100.00
51289;BME280;37372;52.294;5.152;2023-01-31T05:42:17;102228.09;;;3.95;100.00
51289;BME280;37372;52.294;5.152;2023-01-31T05:44:42;102219.56;;;4.00;100.00
51289;BME280;37372;52.294;5.152;2023-01-31T05:47:08;102214.94;;;4.04;100.00
51289;BME280;37372;52.294;5.152;2023-01-31T05:49:33;102207.31;;;4.01;100.00
51289;BME280;37372;52.294;5.152;2023-01-31T05:51:59;102199.09;;;4.04;100.00
51289;BME280;37372;52.294;5.152;2023-01-31T05:54:24;102198.38;;;3.95;100.00
51289;BME280;37372;52.294;5.152;2023-01-31T05:56:50;102197.34;;;4.00;100.00
51289;BME280;37372;52.294;5.152;2023-01-31T05:59:15;102207.59;;;4.08;100.00
51289;BME280;37372;52.294;5.152;2023-01-31T06:01:40;102202.91;;;4.00;100.00
51289;BME280;37372;52.294;5.152;2023-01-31T06:04:06;102196.00;;;4.06;100.00
51289;BME280;37372;52.294;5.152;2023-01-31T06:06:31;102185.91;;;4.01;100.00
51289;BME280;37372;52.294;5.152;2023-01-31T06:08:56;102175.25;;;4.03;100.00
51289;BME280;37372;52.294;5.152;2023-01-31T06:11:22;102176.97;;;3.96;100.00
51289;BME280;37372;52.294;5.152;2023-01-31T06:13:49;102175.78;;;3.97;100.00
51289;BME280;37372;52.294;5.152;2023-01-31T06:16:14;102183.19;;;3.92;100.00
51289;BME280;37372;52.294;5.152;2023-01-31T06:18:40;102179.72;;;3.96;100.00
51289;BME280;37372;52.294;5.152;2023-01-31T06:21:05;102174.31;;;3.99;100.00
51289;BME280;37372;52.294;5.152;2023-01-31T06:23:31;102192.59;;;4.00;100.00
51289;BME280;37372;52.294;5.152;2023-01-31T06:25:58;102184.75;;;4.02;100.00
51289;BME280;37372;52.294;5.152;2023-01-31T06:28:23;102188.19;;;3.99;100.00
51289;BME280;37372;52.294;5.152;2023-01-31T06:30:49;102183.66;;;3.95;100.00
51289;BME280;37372;52.294;5.152;2023-01-31T06:33:15;102183.91;;;4.02;100.00
51289;BME280;37372;52.294;5.152;2023-01-31T06:35:41;102175.38;;;4.07;100.00
51289;BME280;37372;52.294;5.152;2023-01-31T06:38:06;102170.53;;;4.04;100.00
51289;BME280;37372;52.294;5.152;2023-01-31T06:40:32;102165.13;;;4.07;100.00
51289;BME280;37372;52.294;5.152;2023-01-31T06:42:58;102164.28;;;4.07;100.00
51289;BME280;37372;52.294;5.152;2023-01-31T06:45:23;102163.47;;;4.06;100.00
51289;BME280;37372;52.294;5.152;2023-01-31T06:47:48;102159.91;;;4.06;100.00
51289;BME280;37372;52.294;5.152;2023-01-31T06:50:14;102154.00;;;4.07;100.00
51289;BME280;37372;52.294;5.152;2023-01-31T06:52:40;102160.66;;;4.15;100.00
51289;BME280;37372;52.294;5.152;2023-01-31T06:55:06;102149.13;;;4.25;100.00
51289;BME280;37372;52.294;5.152;2023-01-31T06:57:31;102154.19;;;4.23;100.00
51289;BME280;37372;52.294;5.152;2023-01-31T06:59:57;102145.06;;;4.23;100.00
51289;BME280;37372;52.294;5.152;2023-01-31T07:02:22;102144.16;;;4.31;100.00
51289;BME280;37372;52.294;5.152;2023-01-31T07:04:48;102148.72;;;4.35;100.00
51289;BME280;37372;52.294;5.152;2023-01-31T07:07:13;102148.50;;;4.41;100.00
51289;BME280;37372;52.294;5.152;2023-01-31T07:09:39;102156.13;;;4.44;100.00
51289;BME280;37372;52.294;5.152;2023-01-31T07:12:04;102158.03;;;4.52;100.00
51289;BME280;37372;52.294;5.152;2023-01-31T07:14:30;102142.41;;;4.60;100.00
51289;BME280;37372;52.294;5.152;2023-01-31T07:16:55;102142.66;;;4.67;100.00
51289;BME280;37372;52.294;5.152;2023-01-31T07:19:20;102156.69;;;4.70;100.00
51289;BME280;37372;52.294;5.152;2023-01-31T07:21:46;102153.56;;;4.72;100.00
51289;BME280;37372;52.294;5.152;2023-01-31T07:24:13;102151.81;;;4.67;100.00
51289;BME280;37372;52.294;5.152;2023-01-31T07:26:39;102151.81;;;4.67;100.00
51289;BME280;37372;52.294;5.152;2023-01-31T07:29:04;102153.66;;;4.63;100.00
51289;BME280;37372;52.294;5.152;2023-01-31T07:31:29;102147.28;;;4.63;100.00
51289;BME280;37372;52.294;5.152;2023-01-31T07:33:55;102146.47;;;4.62;100.00
51289;BME280;37372;52.294;5.152;2023-01-31T07:36:20;102141.59;;;4.59;100.00
51289;BME280;37372;52.294;5.152;2023-01-31T07:38:53;102130.38;;;4.68;100.00
51289;BME280;37372;52.294;5.152;2023-01-31T07:41:20;102122.88;;;4.68;100.00
51289;BME280;37372;52.294;5.152;2023-01-31T07:43:45;102116.38;;;4.64;100.00
51289;BME280;37372;52.294;5.152;2023-01-31T07:46:10;102101.31;;;4.65;100.00
51289;BME280;37372;52.294;5.152;2023-01-31T07:48:37;102114.53;;;4.68;100.00
51289;BME280;37372;52.294;5.152;2023-01-31T07:51:02;102105.25;;;4.64;100.00
51289;BME280;37372;52.294;5.152;2023-01-31T07:53:30;102116.63;;;4.71;100.00
51289;BME280;37372;52.294;5.152;2023-01-31T07:56:14;102106.66;;;4.70;100.00
51289;BME280;37372;52.294;5.152;2023-01-31T07:58:40;102102.00;;;4.62;100.00
51289;BME280;37372;52.294;5.152;2023-01-31T08:01:06;102100.03;;;4.63;100.00
51289;BME280;37372;52.294;5.152;2023-01-31T08:03:52;102102.47;;;4.64;100.00
51289;BME280;37372;52.294;5.152;2023-01-31T08:06:18;102103.16;;;4.61;100.00
51289;BME280;37372;52.294;5.152;2023-01-31T08:08:43;102091.59;;;4.59;100.00
51289;BME280;37372;52.294;5.152;2023-01-31T08:11:09;102077.47;;;4.64;100.00
51289;BME280;37372;52.294;5.152;2023-01-31T08:13:36;102083.97;;;4.68;100.00
51289;BME280;37372;52.294;5.152;2023-01-31T08:16:03;102084.88;;;4.72;100.00
51289;BME280;37372;52.294;5.152;2023-01-31T08:18:29;102081.88;;;4.77;100.00
51289;BME280;37372;52.294;5.152;2023-01-31T08:20:58;102071.22;;;4.79;100.00
51289;BME280;37372;52.294;5.152;2023-01-31T08:23:24;102074.94;;;4.84;100.00
51289;BME280;37372;52.294;5.152;2023-01-31T08:25:50;102071.81;;;4.85;100.00
51289;BME280;37372;52.294;5.152;2023-01-31T08:28:15;102067.19;;;4.89;100.00
51289;BME280;37372;52.294;5.152;2023-01-31T08:30:42;102060.94;;;4.92;100.00
51289;BME280;37372;52.294;5.152;2023-01-31T08:33:09;102074.13;;;4.95;100.00
51289;BME280;37372;52.294;5.152;2023-01-31T08:35:35;102079.13;;;5.02;100.00
51289;BME280;37372;52.294;5.152;2023-01-31T08:38:01;102066.13;;;5.06;100.00
51289;BME280;37372;52.294;5.152;2023-01-31T08:40:27;102054.66;;;5.08;100.00
51289;BME280;37372;52.294;5.152;2023-01-31T08:42:54;102062.56;;;5.18;100.00
51289;BME280;37372;52.294;5.152;2023-01-31T08:45:19;102066.59;;;5.20;100.00
51289;BME280;37372;52.294;5.152;2023-01-31T08:47:45;102071.47;;;5.23;100.00
51289;BME280;37372;52.294;5.152;2023-01-31T08:50:10;102082.34;;;5.16;100.00
51289;BME280;37372;52.294;5.152;2023-01-31T08:52:36;102087.34;;;5.23;100.00
51289;BME280;37372;52.294;5.152;2023-01-31T08:55:01;102090.47;;;5.21;100.00
51289;BME280;37372;52.294;5.152;2023-01-31T08:57:27;102084.00;;;5.17;100.00
51289;BME280;37372;52.294;5.152;2023-01-31T08:59:53;102081.22;;;5.17;100.00
51289;BME280;37372;52.294;5.152;2023-01-31T09:02:19;102060.22;;;5.20;100.00
51289;BME280;37372;52.294;5.152;2023-01-31T09:04:45;102075.41;;;5.22;100.00
51289;BME280;37372;52.294;5.152;2023-01-31T09:07:10;102059.06;;;5.21;100.00
51289;BME280;37372;52.294;5.152;2023-01-31T09:09:35;102060.78;;;5.38;100.00
51289;BME280;37372;52.294;5.152;2023-01-31T09:12:02;102055.56;;;5.49;100.00
51289;BME280;37372;52.294;5.152;2023-01-31T09:14:28;102048.72;;;5.46;100.00
51289;BME280;37372;52.294;5.152;2023-01-31T09:16:54;102046.41;;;5.48;100.00
51289;BME280;37372;52.294;5.152;2023-01-31T09:19:20;102030.75;;;5.43;100.00
51289;BME280;37372;52.294;5.152;2023-01-31T09:21:46;102045.66;;;5.63;100.00
51289;BME280;37372;52.294;5.152;2023-01-31T09:24:12;102054.34;;;5.62;100.00
51289;BME280;37372;52.294;5.152;2023-01-31T09:26:37;102053.06;;;5.72;100.00
51289;BME280;37372;52.294;5.152;2023-01-31T09:29:02;102047.88;;;5.58;100.00
51289;BME280;37372;52.294;5.152;2023-01-31T09:31:28;102047.41;;;5.68;100.00
51289;BME280;37372;52.294;5.152;2023-01-31T09:33:54;102041.47;;;5.70;100.00
51289;BME280;37372;52.294;5.152;2023-01-31T09:36:21;102029.50;;;5.69;100.00
51289;BME280;37372;52.294;5.152;2023-01-31T09:38:47;102022.44;;;5.72;100.00
51289;BME280;37372;52.294;5.152;2023-01-31T09:41:25;102027.75;;;5.77;100.00
51289;BME280;37372;52.294;5.152;2023-01-31T09:43:57;102032.00;;;5.86;100.00
51289;BME280;37372;52.294;5.152;2023-01-31T09:46:27;102043.47;;;5.97;100.00
51289;BME280;37372;52.294;5.152;2023-01-31T09:48:58;102040.91;;;6.04;100.00
51289;BME280;37372;52.294;5.152;2023-01-31T09:51:25;102038.72;;;5.98;100.00
51289;BME280;37372;52.294;5.152;2023-01-31T09:53:50;102049.47;;;6.12;100.00
51289;BME280;37372;52.294;5.152;2023-01-31T09:56:39;102047.22;;;6.17;100.00
51289;BME280;37372;52.294;5.152;2023-01-31T09:59:27;102045.03;;;6.11;100.00
51289;BME280;37372;52.294;5.152;2023-01-31T10:05:01;102039.25;;;6.16;100.00
51289;BME280;37372;52.294;5.152;2023-01-31T10:11:02;102022.09;;;6.29;100.00
51289;BME280;37372;52.294;5.152;2023-01-31T10:13:30;102033.25;;;6.29;100.00
51289;BME280;37372;52.294;5.152;2023-01-31T10:16:28;102035.38;;;6.20;100.00
51289;BME280;37372;52.294;5.152;2023-01-31T10:19:05;102034.09;;;6.18;100.00
51289;BME280;37372;52.294;5.152;2023-01-31T10:21:43;102027.22;;;6.27;100.00
51289;BME280;37372;52.294;5.152;2023-01-31T10:24:17;102030.25;;;6.22;100.00
51289;BME280;37372;52.294;5.152;2023-01-31T10:26:50;102023.41;;;6.20;100.00
51289;BME280;37372;52.294;5.152;2023-01-31T10:29:25;102021.34;;;6.17;100.00
51289;BME280;37372;52.294;5.152;2023-01-31T10:32:04;102022.16;;;6.33;100.00
51289;BME280;37372;52.294;5.152;2023-01-31T10:34:42;102016.16;;;6.31;100.00
51289;BME280;37372;52.294;5.152;2023-01-31T10:37:11;102022.88;;;6.30;100.00
51289;BME280;37372;52.294;5.152;2023-01-31T10:39:59;102027.13;;;6.24;100.00
51289;BME280;37372;52.294;5.152;2023-01-31T10:42:30;102025.47;;;6.23;100.00
51289;BME280;37372;52.294;5.152;2023-01-31T10:47:48;102030.97;;;6.19;100.00
51289;BME280;37372;52.294;5.152;2023-01-31T10:50:26;102033.56;;;6.12;100.00
51289;BME280;37372;52.294;5.152;2023-01-31T10:53:16;102023.94;;;6.09;100.00
51289;BME280;37372;52.294;5.152;2023-01-31T10:58:30;102034.75;;;6.27;100.00
51289;BME280;37372;52.294;5.152;2023-01-31T11:00:57;102034.56;;;6.20;100.00
51289;BME280;37372;52.294;5.152;2023-01-31T11:03:23;102039.53;;;6.26;100.00
51289;BME280;37372;52.294;5.152;2023-01-31T11:05:54;102039.63;;;6.30;100.00
51289;BME280;37372;52.294;5.152;2023-01-31T11:08:33;102033.50;;;6.40;100.00
51289;BME280;37372;52.294;5.152;2023-01-31T11:11:05;102033.06;;;6.38;100.00
51289;BME280;37372;52.294;5.152;2023-01-31T11:13:31;102044.06;;;6.47;100.00
51289;BME280;37372;52.294;5.152;2023-01-31T11:15:56;102032.91;;;6.47;100.00
51289;BME280;37372;52.294;5.152;2023-01-31T11:18:45;102035.06;;;6.53;100.00
51289;BME280;37372;52.294;5.152;2023-01-31T11:21:25;102039.94;;;6.57;100.00
51289;BME280;37372;52.294;5.152;2023-01-31T11:23:51;102028.31;;;6.55;100.00
51289;BME280;37372;52.294;5.152;2023-01-31T11:26:29;102026.88;;;6.61;100.00
51289;BME280;37372;52.294;5.152;2023-01-31T11:28:55;102018.97;;;6.63;100.00
51289;BME280;37372;52.294;5.152;2023-01-31T11:31:28;102018.25;;;6.66;100.00
51289;BME280;37372;52.294;5.152;2023-01-31T11:33:58;102026.06;;;6.60;100.00
51289;BME280;37372;52.294;5.152;2023-01-31T11:36:24;102013.47;;;6.66;100.00
51289;BME280;37372;52.294;5.152;2023-01-31T11:38:55;102004.84;;;6.71;100.00
51289;BME280;37372;52.294;5.152;2023-01-31T11:41:34;102013.56;;;6.70;100.00
51289;BME280;37372;52.294;5.152;2023-01-31T11:44:10;102025.88;;;6.69;100.00
51289;BME280;37372;52.294;5.152;2023-01-31T11:47:02;102011.94;;;6.69;100.00
51289;BME280;37372;52.294;5.152;2023-01-31T11:49:35;102005.81;;;6.79;100.00
51289;BME280;37372;52.294;5.152;2023-01-31T11:52:19;102003.59;;;6.85;100.00
51289;BME280;37372;52.294;5.152;2023-01-31T11:54:48;101989.91;;;6.80;100.00
51289;BME280;37372;52.294;5.152;2023-01-31T11:57:20;101974.94;;;7.04;100.00
51289;BME280;37372;52.294;5.152;2023-01-31T11:59:49;101977.25;;;7.02;100.00
51289;BME280;37372;52.294;5.152;2023-01-31T12:02:37;101970.81;;;6.98;100.00
51289;BME280;37372;52.294;5.152;2023-01-31T12:05:10;101968.78;;;7.14;100.00
51289;BME280;37372;52.294;5.152;2023-01-31T12:07:45;101970.84;;;7.17;100.00
51289;BME280;37372;52.294;5.152;2023-01-31T12:10:40;101973.44;;;7.26;100.00
51289;BME280;37372;52.294;5.152;2023-01-31T12:13:17;101966.66;;;7.27;100.00
51289;BME280;37372;52.294;5.152;2023-01-31T12:16:03;101966.75;;;7.50;100.00
51289;BME280;37372;52.294;5.152;2023-01-31T12:18:45;101961.03;;;7.43;100.00
51289;BME280;37372;52.294;5.152;2023-01-31T12:21:16;101952.22;;;7.41;100.00
51289;BME280;37372;52.294;5.152;2023-01-31T12:29:47;101958.47;;;7.53;100.00
51289;BME280;37372;52.294;5.152;2023-01-31T12:35:32;101944.50;;;7.53;100.00
51289;BME280;37372;52.294;5.152;2023-01-31T12:38:25;101939.13;;;7.64;100.00
51289;BME280;37372;52.294;5.152;2023-01-31T12:43:50;101946.63;;;7.79;100.00
51289;BME280;37372;52.294;5.152;2023-01-31T12:49:55;101932.72;;;8.06;100.00
51289;BME280;37372;52.294;5.152;2023-01-31T13:01:18;101923.06;;;8.00;100.00
51289;BME280;37372;52.294;5.152;2023-01-31T13:04:03;101931.88;;;8.02;100.00
51289;BME280;37372;52.294;5.152;2023-01-31T13:06:34;101922.91;;;7.93;100.00
51289;BME280;37372;52.294;5.152;2023-01-31T13:09:24;101927.03;;;7.99;100.00
51289;BME280;37372;52.294;5.152;2023-01-31T13:11:55;101928.69;;;8.03;100.00
51289;BME280;37372;52.294;5.152;2023-01-31T13:14:25;101927.09;;;8.25;100.00
51289;BME280;37372;52.294;5.152;2023-01-31T13:16:54;101928.03;;;8.10;100.00
51289;BME280;37372;52.294;5.152;2023-01-31T13:19:26;101931.25;;;8.12;100.00
51289;BME280;37372;52.294;5.152;2023-01-31T13:22:01;101930.78;;;8.07;100.00
51289;BME280;37372;52.294;5.152;2023-01-31T13:24:36;101932.69;;;8.02;100.00
51289;BME280;37372;52.294;5.152;2023-01-31T13:27:31;101930.94;;;7.94;100.00
51289;BME280;37372;52.294;5.152;2023-01-31T13:30:47;101938.84;;;8.12;100.00
51289;BME280;37372;52.294;5.152;2023-01-31T13:33:26;101934.72;;;8.05;100.00
51289;BME280;37372;52.294;5.152;2023-01-31T13:38:42;101943.66;;;7.92;100.00
51289;BME280;37372;52.294;5.152;2023-01-31T13:41:25;101950.72;;;7.86;100.00
51289;BME280;37372;52.294;5.152;2023-01-31T13:43:51;101951.09;;;7.84;100.00
51289;BME280;37372;52.294;5.152;2023-01-31T13:46:21;101939.78;;;7.77;100.00
51289;BME280;37372;52.294;5.152;2023-01-31T13:48:58;101966.06;;;7.95;100.00
51289;BME280;37372;52.294;5.152;2023-01-31T13:51:28;101964.34;;;8.10;100.00
51289;BME280;37372;52.294;5.152;2023-01-31T13:56:37;101965.84;;;8.04;100.00
51289;BME280;37372;52.294;5.152;2023-01-31T13:59:07;101967.09;;;8.07;100.00
51289;BME280;37372;52.294;5.152;2023-01-31T14:01:35;101961.13;;;8.31;100.00
51289;BME280;37372;52.294;5.152;2023-01-31T14:09:25;101978.53;;;8.21;100.00
51289;BME280;37372;52.294;5.152;2023-01-31T14:11:51;101987.31;;;8.19;100.00
51289;BME280;37372;52.294;5.152;2023-01-31T14:14:40;101978.34;;;8.10;100.00
51289;BME280;37372;52.294;5.152;2023-01-31T14:19:58;101984.59;;;8.03;100.00
51289;BME280;37372;52.294;5.152;2023-01-31T14:22:31;101984.72;;;8.11;100.00
51289;BME280;37372;52.294;5.152;2023-01-31T14:25:04;102017.31;;;8.03;100.00